Centerville, Florida
Current Conditions -  °F | °C
As of 10:53 AM on Saturday 22 Nov 2014 (Local Time) from KTLH Reporting Station
Overcast Overcast  
Wind Chill: 62°   Ceiling: 4300
Heat Index: 62°   Visibility: 10mi
Dew Point: 48°   Wind: 13mph
Humidity: 60%   Direction: 70°ENE
Pressure: 30.32"   Gusts: 20mph
Location:  30.5947°N, 84.0417°W
Report Text: KTLH 221453Z 07011G17KT 10SM BKN043 OVC055 17/09 A3032 RMK AO2 SLP266 T01670089 50002 $
Loading
Personal Weather Stations






























Interactive Weather Map New forecast layout! Learn more

10-Day Weather Forecast

Advertisements
Track Severe Weather on mobile